createdAt,value
2018-11-29T00:00:26.624Z,100567.01
2018-11-29T00:00:57.735Z,100557.89
2018-11-29T00:01:28.846Z,100566.86
2018-11-29T00:01:59.977Z,100565.92
2018-11-29T00:02:31.124Z,100566.37
2018-11-29T00:03:02.232Z,100570.13
2018-11-29T00:03:33.345Z,100566.63
2018-11-29T00:04:04.531Z,100571.81
2018-11-29T00:04:35.648Z,100566.73
2018-11-29T00:05:06.768Z,100573.55
2018-11-29T00:05:37.876Z,100567.58
2018-11-29T00:06:08.999Z,100569.76
2018-11-29T00:06:40.109Z,100575.78
2018-11-29T00:07:11.908Z,100576.21
2018-11-29T00:07:43.136Z,100574.49
2018-11-29T00:08:14.265Z,100573.61
2018-11-29T00:08:45.392Z,100576.19
2018-11-29T00:09:16.501Z,100576.54
2018-11-29T00:09:47.622Z,100579.72
2018-11-29T00:10:18.789Z,100579.67
2018-11-29T00:10:49.900Z,100583.37
2018-11-29T00:11:21.020Z,100574.52
2018-11-29T00:11:52.136Z,100581.86
2018-11-29T00:12:23.240Z,100582.30
2018-11-29T00:12:54.395Z,100584.44
2018-11-29T00:13:25.553Z,100588.67
2018-11-29T00:13:56.694Z,100591.67
2018-11-29T00:14:27.799Z,100582.34
2018-11-29T00:14:59.833Z,100588.38
2018-11-29T00:15:30.970Z,100590.14
2018-11-29T00:16:02.084Z,100595.30
2018-11-29T00:16:33.196Z,100588.98
2018-11-29T00:17:04.315Z,100590.34
2018-11-29T00:17:35.424Z,100591.05
2018-11-29T00:18:06.578Z,100602.30
2018-11-29T00:18:37.682Z,100600.19
2018-11-29T00:19:08.841Z,100593.31
2018-11-29T00:19:39.975Z,100599.33
2018-11-29T00:20:11.083Z,100600.14
2018-11-29T00:20:42.248Z,100603.67
2018-11-29T00:21:13.360Z,100600.19
2018-11-29T00:21:44.501Z,100604.42
2018-11-29T00:22:15.624Z,100601.02
2018-11-29T00:22:46.746Z,100602.76
2018-11-29T00:23:17.852Z,100599.27
2018-11-29T00:23:48.964Z,100609.55
2018-11-29T00:24:20.084Z,100606.06
2018-11-29T00:24:51.197Z,100604.42
2018-11-29T00:25:22.320Z,100606.58
2018-11-29T00:25:53.464Z,100604.36
2018-11-29T00:26:24.583Z,100604.70
2018-11-29T00:26:55.707Z,100613.18
2018-11-29T00:27:26.814Z,100605.28
2018-11-29T00:27:57.929Z,100614.66
2018-11-29T00:28:29.048Z,100612.02
2018-11-29T00:29:00.176Z,100607.67
2018-11-29T00:29:31.300Z,100616.59
2018-11-29T00:30:02.400Z,100616.17
2018-11-29T00:30:33.516Z,100617.89
2018-11-29T00:31:04.664Z,100620.46
2018-11-29T00:31:35.781Z,100617.41
2018-11-29T00:32:06.895Z,100623.41
2018-11-29T00:32:38.024Z,100623.81
2018-11-29T00:33:09.145Z,100622.44
2018-11-29T00:33:40.256Z,100617.70
2018-11-29T00:34:11.402Z,100619.05
2018-11-29T00:34:42.511Z,100624.19
2018-11-29T00:35:13.612Z,100624.19
2018-11-29T00:35:44.719Z,100624.62
2018-11-29T00:36:15.840Z,100622.90
2018-11-29T00:36:46.992Z,100623.81
2018-11-29T00:37:18.148Z,100624.67
2018-11-29T00:37:49.260Z,100628.61
2018-11-29T00:38:20.396Z,100635.60
2018-11-29T00:38:51.536Z,100630.19
2018-11-29T00:39:22.650Z,100633.22
2018-11-29T00:39:53.773Z,100631.00
2018-11-29T00:40:24.885Z,100630.30
2018-11-29T00:40:56.000Z,100632.89
2018-11-29T00:41:27.117Z,100634.53
2018-11-29T00:41:58.241Z,100632.30
2018-11-29T00:42:29.347Z,100635.66
2018-11-29T00:43:00.499Z,100636.03
2018-11-29T00:43:31.607Z,100640.33
2018-11-29T00:44:02.715Z,100639.39
2018-11-29T00:44:33.831Z,100636.41
2018-11-29T00:45:04.950Z,100639.39
2018-11-29T00:45:36.068Z,100642.30
2018-11-29T00:46:07.183Z,100645.69
2018-11-29T00:46:38.289Z,100647.37
2018-11-29T00:47:09.411Z,100644.27
2018-11-29T00:47:40.561Z,100647.71
2018-11-29T00:48:11.672Z,100646.86
2018-11-29T00:48:42.801Z,100646.94
2018-11-29T00:49:14.418Z,100648.71
2018-11-29T00:49:45.534Z,100652.62
2018-11-29T00:50:16.716Z,100650.05
2018-11-29T00:50:47.868Z,100652.17
2018-11-29T00:51:18.992Z,100652.11
2018-11-29T00:51:50.112Z,100649.45
2018-11-29T00:52:21.226Z,100653.31
2018-11-29T00:52:52.372Z,100649.45
2018-11-29T00:53:23.471Z,100655.44
2018-11-29T00:53:54.586Z,100652.30
2018-11-29T00:54:25.692Z,100658.50
2018-11-29T00:54:56.812Z,100660.19
2018-11-29T00:55:27.939Z,100657.53
2018-11-29T00:55:59.035Z,100658.45
2018-11-29T00:56:30.141Z,100656.70
2018-11-29T00:57:02.149Z,100660.59
2018-11-29T00:57:33.303Z,100655.92
2018-11-29T00:58:04.460Z,100660.75
2018-11-29T00:58:36.189Z,100668.47
2018-11-29T00:59:07.591Z,100656.89
2018-11-29T00:59:38.709Z,100662.50
2018-11-29T01:00:10.221Z,100658.19
2018-11-29T01:00:41.381Z,100665.50
2018-11-29T01:01:12.488Z,100661.67
2018-11-29T01:01:43.600Z,100664.24
2018-11-29T01:02:14.717Z,100661.23
2018-11-29T01:02:45.828Z,100662.95
2018-11-29T01:03:16.936Z,100671.96
2018-11-29T01:03:48.043Z,100672.79
2018-11-29T01:04:19.145Z,100665.50
2018-11-29T01:04:50.252Z,100668.91
2018-11-29T01:05:21.400Z,100670.63
2018-11-29T01:05:52.521Z,100677.77
2018-11-29T01:06:23.638Z,100676.48
2018-11-29T01:06:54.748Z,100674.24
2018-11-29T01:07:25.859Z,100678.08
2018-11-29T01:07:56.962Z,100672.02
2018-11-29T01:08:28.068Z,100675.02
2018-11-29T01:08:59.183Z,100675.84
2018-11-29T01:09:30.296Z,100674.98
2018-11-29T01:10:01.412Z,100677.13
2018-11-29T01:10:32.567Z,100673.88
2018-11-29T01:11:03.671Z,100671.67
2018-11-29T01:11:34.795Z,100674.61
2018-11-29T01:12:05.947Z,100672.05
2018-11-29T01:12:37.059Z,100672.45
2018-11-29T01:13:08.168Z,100674.98
2018-11-29T01:13:39.283Z,100677.13
2018-11-29T01:14:10.408Z,100677.56
2018-11-29T01:14:41.507Z,100679.34
2018-11-29T01:15:13.193Z,100678.47
2018-11-29T01:15:44.310Z,100679.39
2018-11-29T01:16:15.432Z,100675.98
2018-11-29T01:16:46.536Z,100685.59
2018-11-29T01:17:17.693Z,100682.68
2018-11-29T01:17:48.816Z,100683.53
2018-11-29T01:18:19.928Z,100680.48
2018-11-29T01:18:51.042Z,100684.68
2018-11-29T01:19:22.154Z,100685.91
2018-11-29T01:19:53.261Z,100681.50
2018-11-29T01:20:24.372Z,100689.56
2018-11-29T01:20:55.493Z,100686.56
2018-11-29T01:21:26.603Z,100684.81
2018-11-29T01:21:57.709Z,100681.81
2018-11-29T01:22:28.865Z,100683.92
2018-11-29T01:23:00.024Z,100688.53
2018-11-29T01:23:31.142Z,100686.30
2018-11-29T01:24:02.252Z,100687.48
2018-11-29T01:24:33.355Z,100682.28
2018-11-29T01:25:04.485Z,100686.14
2018-11-29T01:25:35.614Z,100684.39
2018-11-29T01:26:06.735Z,100692.47
2018-11-29T01:26:37.848Z,100692.88
2018-11-29T01:27:08.985Z,100689.72
2018-11-29T01:27:40.084Z,100685.77
2018-11-29T01:28:11.225Z,100692.20
2018-11-29T01:28:42.333Z,100689.53
2018-11-29T01:29:13.448Z,100696.81
2018-11-29T01:29:44.578Z,100693.09
2018-11-29T01:30:15.699Z,100695.45
2018-11-29T01:30:46.819Z,100695.11
2018-11-29T01:31:17.936Z,100693.48
2018-11-29T01:31:49.042Z,100698.17
2018-11-29T01:32:20.962Z,100694.66
2018-11-29T01:32:52.076Z,100693.23
2018-11-29T01:33:23.225Z,100697.98
2018-11-29T01:33:54.336Z,100694.41
2018-11-29T01:34:25.453Z,100696.97
2018-11-29T01:34:56.568Z,100694.83
2018-11-29T01:35:27.687Z,100701.26
2018-11-29T01:35:58.797Z,100698.23
2018-11-29T01:36:29.917Z,100696.91
2018-11-29T01:37:01.032Z,100704.59
2018-11-29T01:37:32.168Z,100701.92
2018-11-29T01:38:03.300Z,100698.89
2018-11-29T01:38:34.448Z,100698.80
2018-11-29T01:39:05.558Z,100697.45
2018-11-29T01:39:36.680Z,100698.83
2018-11-29T01:40:07.812Z,100702.72
2018-11-29T01:40:38.917Z,100700.58
2018-11-29T01:41:10.025Z,100698.86
2018-11-29T01:41:41.149Z,100702.33
2018-11-29T01:42:12.254Z,100704.50
2018-11-29T01:42:43.362Z,100708.45
2018-11-29T01:43:14.506Z,100698.16
2018-11-29T01:43:45.630Z,100695.04
2018-11-29T01:44:16.729Z,100701.75
2018-11-29T01:44:47.841Z,100703.03
2018-11-29T01:45:18.961Z,100702.55
2018-11-29T01:45:50.073Z,100703.37
2018-11-29T01:46:21.512Z,100705.48
2018-11-29T01:46:52.633Z,100701.59
2018-11-29T01:47:23.790Z,100707.35
2018-11-29T01:47:54.900Z,100707.02
2018-11-29T01:48:26.044Z,100709.92
2018-11-29T01:48:57.183Z,100707.86
2018-11-29T01:49:28.350Z,100710.46
2018-11-29T01:49:59.466Z,100706.24
2018-11-29T01:50:30.580Z,100708.05
2018-11-29T01:51:01.697Z,100707.72
2018-11-29T01:51:32.807Z,100711.11
2018-11-29T01:52:03.927Z,100713.25
2018-11-29T01:52:35.036Z,100703.21
2018-11-29T01:53:06.281Z,100709.14
2018-11-29T01:53:38.304Z,100708.78
2018-11-29T01:54:09.421Z,100709.50
2018-11-29T01:54:40.540Z,100698.02
2018-11-29T01:55:11.648Z,100702.18
2018-11-29T01:55:42.760Z,100707.91
2018-11-29T01:56:13.890Z,100707.32
2018-11-29T01:56:44.984Z,100714.91
2018-11-29T01:57:16.098Z,100712.30
2018-11-29T01:57:47.206Z,100713.95
2018-11-29T01:58:18.364Z,100711.32
2018-11-29T01:58:49.472Z,100719.86
2018-11-29T01:59:20.585Z,100710.73
2018-11-29T01:59:51.697Z,100715.60
2018-11-29T02:00:22.793Z,100719.95
2018-11-29T02:00:53.896Z,100718.73
2018-11-29T02:01:25.050Z,100720.84
2018-11-29T02:01:56.159Z,100714.78
2018-11-29T02:02:27.270Z,100716.55
2018-11-29T02:02:58.380Z,100717.94
2018-11-29T02:03:29.561Z,100713.19
2018-11-29T02:04:00.676Z,100717.05
2018-11-29T02:04:31.785Z,100721.83
2018-11-29T02:05:02.898Z,100723.05
2018-11-29T02:05:34.028Z,100719.22
2018-11-29T02:06:05.148Z,100715.92
2018-11-29T02:06:36.292Z,100720.27
2018-11-29T02:07:07.413Z,100724.09
2018-11-29T02:07:38.523Z,100722.80
2018-11-29T02:08:09.666Z,100718.64
2018-11-29T02:08:40.808Z,100715.61
2018-11-29T02:09:11.916Z,100720.70
2018-11-29T02:09:43.033Z,100724.22
2018-11-29T02:10:14.151Z,100727.16
2018-11-29T02:10:45.273Z,100722.04
2018-11-29T02:11:16.385Z,100726.76
2018-11-29T02:11:47.496Z,100721.06
2018-11-29T02:12:18.611Z,100720.17
2018-11-29T02:12:49.747Z,100718.39
2018-11-29T02:13:20.855Z,100722.65
2018-11-29T02:13:52.008Z,100726.47
2018-11-29T02:14:23.165Z,100721.77
2018-11-29T02:14:54.304Z,100721.95
2018-11-29T02:15:25.420Z,100723.21
2018-11-29T02:15:56.536Z,100726.67
2018-11-29T02:16:27.644Z,100725.81
2018-11-29T02:16:58.755Z,100726.97
2018-11-29T02:17:29.860Z,100725.38
2018-11-29T02:18:01.020Z,100725.48
2018-11-29T02:18:32.145Z,100726.05
2018-11-29T02:19:03.256Z,100727.74
2018-11-29T02:19:34.431Z,100728.94
2018-11-29T02:20:05.548Z,100722.44
2018-11-29T02:20:36.707Z,100731.02
2018-11-29T02:21:07.835Z,100728.78
2018-11-29T02:21:38.939Z,100723.21
2018-11-29T02:22:10.048Z,100724.86
2018-11-29T02:22:41.191Z,100731.27
2018-11-29T02:23:12.316Z,100734.69
2018-11-29T02:23:43.421Z,100732.64
2018-11-29T02:24:14.534Z,100729.47
2018-11-29T02:24:45.692Z,100721.13
2018-11-29T02:25:16.810Z,100720.98
2018-11-29T02:25:47.956Z,100727.81
2018-11-29T02:26:19.099Z,100725.75
2018-11-29T02:26:51.066Z,100730.22
2018-11-29T02:27:22.180Z,100726.25
2018-11-29T02:27:53.326Z,100726.91
2018-11-29T02:28:24.432Z,100722.47
2018-11-29T02:28:55.578Z,100723.10
2018-11-29T02:29:26.692Z,100719.24
2018-11-29T02:29:57.884Z,100634.48
2018-11-29T02:30:29.037Z,100720.91
2018-11-29T02:31:00.193Z,100728.63
2018-11-29T02:31:31.304Z,100722.62
2018-11-29T02:32:02.423Z,100726.39
2018-11-29T02:32:33.583Z,100723.25
2018-11-29T02:33:04.696Z,100729.98
2018-11-29T02:33:35.817Z,100730.77
2018-11-29T02:34:06.967Z,100730.21
2018-11-29T02:34:38.126Z,100726.76
2018-11-29T02:35:09.237Z,100729.67
2018-11-29T02:35:40.344Z,100733.86
2018-11-29T02:36:11.498Z,100734.70
2018-11-29T02:36:42.645Z,100731.11
2018-11-29T02:37:13.759Z,100729.85
2018-11-29T02:37:44.878Z,100738.34
2018-11-29T02:38:15.975Z,100735.20
2018-11-29T02:38:47.087Z,100737.08
2018-11-29T02:39:18.218Z,100739.92
2018-11-29T02:39:49.327Z,100744.98
2018-11-29T02:40:20.474Z,100740.75
2018-11-29T02:40:51.589Z,100747.16
2018-11-29T02:41:22.706Z,100749.66
2018-11-29T02:41:53.814Z,100746.57
2018-11-29T02:42:24.977Z,100743.08
2018-11-29T02:42:56.102Z,100745.13
2018-11-29T02:43:27.211Z,100744.70
2018-11-29T02:43:58.320Z,100748.83
2018-11-29T02:44:29.475Z,100747.48
2018-11-29T02:45:00.601Z,100750.45
2018-11-29T02:45:31.719Z,100748.41
2018-11-29T02:46:02.827Z,100745.22
2018-11-29T02:46:33.972Z,100746.20
2018-11-29T02:47:05.077Z,100741.57
2018-11-29T02:47:36.176Z,100744.29
2018-11-29T02:48:07.284Z,100748.58
2018-11-29T02:48:38.399Z,100750.90
2018-11-29T02:49:09.520Z,100746.61
2018-11-29T02:49:40.639Z,100749.19
2018-11-29T02:50:11.799Z,100747.01
2018-11-29T02:50:42.953Z,100747.27
2018-11-29T02:51:14.084Z,100744.95
2018-11-29T02:51:45.211Z,100751.64
2018-11-29T02:52:16.337Z,100754.89
2018-11-29T02:52:47.447Z,100753.83
2018-11-29T02:53:18.556Z,100754.50
2018-11-29T02:53:49.670Z,100764.11
2018-11-29T02:54:20.776Z,100760.03
2018-11-29T02:54:51.881Z,100767.75
2018-11-29T02:55:22.987Z,100755.72
2018-11-29T02:55:54.153Z,100753.94
2018-11-29T02:56:25.256Z,100764.89
2018-11-29T02:56:56.437Z,100763.12
2018-11-29T02:57:28.286Z,100766.67
2018-11-29T02:57:59.399Z,100762.48
2018-11-29T02:58:30.547Z,100758.95
2018-11-29T02:59:01.693Z,100759.26
2018-11-29T02:59:32.805Z,100758.80
2018-11-29T03:00:03.912Z,100760.91
2018-11-29T03:00:35.019Z,100762.95
2018-11-29T03:01:06.184Z,100767.11
2018-11-29T03:01:37.296Z,100766.31
2018-11-29T03:02:08.404Z,100761.08
2018-11-29T03:02:39.514Z,100765.72
2018-11-29T03:03:10.620Z,100770.70
2018-11-29T03:03:41.730Z,100771.92
2018-11-29T03:04:12.837Z,100767.47
2018-11-29T03:04:43.940Z,100772.31
2018-11-29T03:05:15.084Z,100769.81
2018-11-29T03:05:46.200Z,100776.63
2018-11-29T03:06:17.358Z,100772.87
2018-11-29T03:06:48.468Z,100772.31
2018-11-29T03:07:19.583Z,100769.74
2018-11-29T03:07:50.744Z,100777.85
2018-11-29T03:08:21.849Z,100772.22
2018-11-29T03:08:52.994Z,100769.97
2018-11-29T03:09:24.108Z,100775.58
2018-11-29T03:09:55.212Z,100776.77
2018-11-29T03:10:26.331Z,100775.41
2018-11-29T03:10:57.436Z,100776.20
2018-11-29T03:11:28.583Z,100784.02
2018-11-29T03:11:59.692Z,100782.92
2018-11-29T03:12:30.800Z,100783.45
2018-11-29T03:13:01.910Z,100786.09
2018-11-29T03:13:33.020Z,100789.61
2018-11-29T03:14:04.125Z,100786.48
2018-11-29T03:14:35.238Z,100781.75
2018-11-29T03:15:06.340Z,100787.05
2018-11-29T03:15:37.508Z,100790.80
2018-11-29T03:16:08.629Z,100787.50
2018-11-29T03:16:39.739Z,100788.97
2018-11-29T03:17:10.861Z,100789.16
2018-11-29T03:17:42.018Z,100790.52
2018-11-29T03:18:13.141Z,100783.89
2018-11-29T03:18:44.281Z,100787.53
2018-11-29T03:19:15.429Z,100790.25
2018-11-29T03:19:46.540Z,100788.80
2018-11-29T03:20:17.657Z,100786.05
2018-11-29T03:20:48.775Z,100783.24
2018-11-29T03:21:19.888Z,100787.93
2018-11-29T03:21:51.053Z,100789.59
2018-11-29T03:22:22.156Z,100786.73
2018-11-29T03:22:53.260Z,100787.94
2018-11-29T03:23:24.381Z,100792.52
2018-11-29T03:23:55.491Z,100791.77
2018-11-29T03:24:26.615Z,100789.55
2018-11-29T03:24:57.732Z,100791.29
2018-11-29T03:25:28.854Z,100792.63
2018-11-29T03:25:59.963Z,100793.94
2018-11-29T03:26:31.065Z,100795.58
2018-11-29T03:27:02.219Z,100796.84
2018-11-29T03:27:33.329Z,100795.03
2018-11-29T03:28:04.456Z,100800.44
2018-11-29T03:28:35.572Z,100798.83
2018-11-29T03:29:06.681Z,100798.28
2018-11-29T03:29:37.796Z,100801.56
2018-11-29T03:30:08.910Z,100802.39
2018-11-29T03:30:40.024Z,100803.19
2018-11-29T03:31:11.232Z,100801.75
2018-11-29T03:31:42.321Z,100798.97
2018-11-29T03:32:13.487Z,100794.92
2018-11-29T03:32:44.674Z,100800.23
2018-11-29T03:33:15.846Z,100800.13
2018-11-29T03:33:46.986Z,100805.12
2018-11-29T03:34:18.150Z,100805.18
2018-11-29T03:34:49.263Z,100797.37
2018-11-29T03:35:20.379Z,100800.28
2018-11-29T03:35:51.494Z,100803.19
2018-11-29T03:36:22.618Z,100804.02
2018-11-29T03:36:53.723Z,100805.30
2018-11-29T03:37:24.843Z,100803.50
2018-11-29T03:37:55.957Z,100802.89
2018-11-29T03:38:27.130Z,100810.09
2018-11-29T03:38:58.249Z,100802.22
2018-11-29T03:39:29.360Z,100805.73
2018-11-29T03:40:00.493Z,100805.70
2018-11-29T03:40:31.608Z,100810.06
2018-11-29T03:41:02.725Z,100804.39
2018-11-29T03:41:33.843Z,100810.27
2018-11-29T03:42:04.955Z,100812.51
2018-11-29T03:42:36.062Z,100808.25
2018-11-29T03:43:07.166Z,100807.36
2018-11-29T03:43:38.323Z,100808.65
2018-11-29T03:44:09.431Z,100808.16
2018-11-29T03:44:40.591Z,100808.47
2018-11-29T03:45:11.713Z,100811.73
2018-11-29T03:45:42.849Z,100812.94
2018-11-29T03:46:13.971Z,100817.09
2018-11-29T03:46:45.134Z,100816.08
2018-11-29T03:47:16.248Z,100812.61
2018-11-29T03:47:47.399Z,100816.34
2018-11-29T03:48:18.513Z,100818.42
2018-11-29T03:48:49.637Z,100821.81
2018-11-29T03:49:20.757Z,100810.53
2018-11-29T03:49:51.868Z,100819.56
2018-11-29T03:50:22.982Z,100818.22
2018-11-29T03:50:54.120Z,100819.27
2018-11-29T03:51:26.348Z,100816.70
2018-11-29T03:51:57.452Z,100819.43
2018-11-29T03:52:28.577Z,100822.40
2018-11-29T03:52:59.738Z,100821.54
2018-11-29T03:53:30.852Z,100821.14
2018-11-29T03:54:01.960Z,100821.91
2018-11-29T03:54:33.082Z,100815.70
2018-11-29T03:55:04.197Z,100822.50
2018-11-29T03:55:35.310Z,100823.63
2018-11-29T03:56:06.415Z,100823.08
2018-11-29T03:56:37.537Z,100826.69
2018-11-29T03:57:08.651Z,100821.44
2018-11-29T03:57:39.768Z,100823.42
2018-11-29T03:58:10.912Z,100823.63
2018-11-29T03:58:42.014Z,100826.44
2018-11-29T03:59:13.121Z,100824.63
2018-11-29T03:59:44.256Z,100829.37
2018-11-29T04:00:15.378Z,100822.88
2018-11-29T04:00:46.553Z,100821.55
2018-11-29T04:01:17.665Z,100825.81
2018-11-29T04:01:48.821Z,100831.78
2018-11-29T04:02:19.954Z,100834.28
2018-11-29T04:02:51.081Z,100827.29
2018-11-29T04:03:22.231Z,100832.43
2018-11-29T04:03:53.341Z,100837.14
2018-11-29T04:04:26.211Z,100839.25
2018-11-29T04:04:57.368Z,100832.30
2018-11-29T04:05:28.511Z,100838.50
2018-11-29T04:05:59.668Z,100836.91
2018-11-29T04:06:30.793Z,100838.27
2018-11-29T04:07:01.933Z,100849.28
2018-11-29T04:07:33.045Z,100846.67
2018-11-29T04:08:04.156Z,100845.28
2018-11-29T04:08:35.271Z,100847.29
2018-11-29T04:09:06.378Z,100845.91
2018-11-29T04:09:37.484Z,100846.77
2018-11-29T04:10:08.601Z,100848.37
2018-11-29T04:10:39.715Z,100850.94
2018-11-29T04:11:10.832Z,100849.94
2018-11-29T04:11:41.946Z,100849.09
2018-11-29T04:12:13.084Z,100852.58
2018-11-29T04:12:44.198Z,100850.02
2018-11-29T04:13:15.335Z,100852.58
2018-11-29T04:13:46.480Z,100848.73
2018-11-29T04:14:18.387Z,100848.73
2018-11-29T04:14:49.503Z,100847.44
2018-11-29T04:15:20.634Z,100849.19
2018-11-29T04:15:51.745Z,100851.27
2018-11-29T04:16:22.862Z,100853.02
2018-11-29T04:16:53.995Z,100852.55
2018-11-29T04:17:25.109Z,100849.09
2018-11-29T04:17:56.264Z,100856.77
2018-11-29T04:18:27.385Z,100851.63
2018-11-29T04:18:58.522Z,100855.98
2018-11-29T04:19:29.656Z,100859.83
2018-11-29T04:20:00.776Z,100854.23
2018-11-29T04:20:31.886Z,100856.80
2018-11-29T04:21:03.006Z,100861.87
2018-11-29T04:21:34.111Z,100860.23
2018-11-29T04:22:05.219Z,100859.37
2018-11-29T04:22:36.358Z,100865.44
2018-11-29T04:23:07.500Z,100863.14
2018-11-29T04:23:38.638Z,100859.81
2018-11-29T04:24:09.797Z,100858.07
2018-11-29T04:24:40.900Z,100866.24
2018-11-29T04:25:12.016Z,100866.24
2018-11-29T04:25:43.132Z,100869.67
2018-11-29T04:26:14.257Z,100863.17
2018-11-29T04:26:45.361Z,100865.71
2018-11-29T04:27:16.467Z,100865.61
2018-11-29T04:27:47.581Z,100869.83
2018-11-29T04:28:18.737Z,100870.58
2018-11-29T04:28:50.722Z,100870.11
2018-11-29T04:29:21.837Z,100867.86
2018-11-29T04:29:52.957Z,100869.47
2018-11-29T04:30:24.066Z,100873.33
2018-11-29T04:30:55.187Z,100870.33
2018-11-29T04:31:26.298Z,100874.19
2018-11-29T04:31:57.418Z,100875.39
2018-11-29T04:32:28.532Z,100876.18
2018-11-29T04:32:59.643Z,100879.14
2018-11-29T04:33:30.790Z,100876.11
2018-11-29T04:34:01.896Z,100879.03
2018-11-29T04:34:33.015Z,100873.61
2018-11-29T04:35:04.119Z,100874.54
2018-11-29T04:35:35.227Z,100874.89
2018-11-29T04:36:06.334Z,100885.75
2018-11-29T04:36:37.444Z,100877.58
2018-11-29T04:37:08.560Z,100885.67
2018-11-29T04:37:39.683Z,100884.35
2018-11-29T04:38:10.846Z,100885.64
2018-11-29T04:38:41.957Z,100880.64
2018-11-29T04:39:13.069Z,100879.28
2018-11-29T04:39:44.202Z,100877.27
2018-11-29T04:40:15.339Z,100876.05
2018-11-29T04:40:46.445Z,100876.55
2018-11-29T04:41:17.810Z,100876.41
2018-11-29T04:41:48.912Z,100877.98
2018-11-29T04:42:20.025Z,100883.84
2018-11-29T04:42:51.128Z,100885.48
2018-11-29T04:43:22.244Z,100879.31
2018-11-29T04:43:53.358Z,100880.96
2018-11-29T04:44:24.459Z,100880.50
2018-11-29T04:44:55.571Z,100886.92
2018-11-29T04:45:26.725Z,100886.89
2018-11-29T04:45:57.845Z,100891.24
2018-11-29T04:46:28.965Z,100885.64
2018-11-29T04:47:00.150Z,100888.20
2018-11-29T04:47:31.261Z,100888.92
2018-11-29T04:48:02.365Z,100890.14
2018-11-29T04:48:33.527Z,100891.39
2018-11-29T04:49:04.650Z,100892.70
2018-11-29T04:49:35.766Z,100888.10
2018-11-29T04:50:06.885Z,100891.92
2018-11-29T04:50:38.040Z,100886.75
2018-11-29T04:51:09.152Z,100896.09
2018-11-29T04:51:40.275Z,100898.63
2018-11-29T04:52:11.405Z,100893.81
2018-11-29T04:52:42.519Z,100892.88
2018-11-29T04:53:13.632Z,100895.52
2018-11-29T04:53:44.761Z,100898.41
2018-11-29T04:54:15.881Z,100900.05
2018-11-29T04:54:47.027Z,100900.05
2018-11-29T04:55:18.134Z,100904.34
2018-11-29T04:55:49.251Z,100903.45
2018-11-29T04:56:20.372Z,100900.41
2018-11-29T04:56:51.497Z,100899.52
2018-11-29T04:57:22.668Z,100903.72
2018-11-29T04:57:53.804Z,100901.19
2018-11-29T04:58:24.919Z,100904.27
2018-11-29T04:58:56.049Z,100906.91
2018-11-29T04:59:27.161Z,100906.80
2018-11-29T04:59:58.265Z,100906.44
2018-11-29T05:00:29.372Z,100905.52
2018-11-29T05:01:00.516Z,100904.27
2018-11-29T05:01:31.630Z,100912.86
2018-11-29T05:02:02.740Z,100911.94
2018-11-29T05:02:33.849Z,100912.75
2018-11-29T05:03:04.965Z,100906.22
2018-11-29T05:03:36.075Z,100917.78
2018-11-29T05:04:07.199Z,100909.97
2018-11-29T05:04:38.378Z,100917.28
2018-11-29T05:05:09.500Z,100919.42
2018-11-29T05:05:40.621Z,100919.89
2018-11-29T05:06:11.769Z,100921.99
2018-11-29T05:06:42.884Z,100920.24
2018-11-29T05:07:13.989Z,100921.87
2018-11-29T05:07:45.111Z,100918.41
2018-11-29T05:08:16.239Z,100920.52
2018-11-29T05:08:47.364Z,100920.05
2018-11-29T05:09:18.481Z,100927.02
2018-11-29T05:09:49.631Z,100917.95
2018-11-29T05:10:20.737Z,100927.80
2018-11-29T05:10:51.853Z,100922.73
2018-11-29T05:11:22.973Z,100931.65
2018-11-29T05:11:54.153Z,100924.72
2018-11-29T05:12:25.274Z,100930.33
2018-11-29T05:12:56.381Z,100928.54
2018-11-29T05:13:27.490Z,100925.42
2018-11-29T05:13:58.592Z,100930.72
2018-11-29T05:14:29.724Z,100929.77
2018-11-29T05:15:00.882Z,100926.06
2018-11-29T05:15:32.029Z,100927.50
2018-11-29T05:16:03.149Z,100932.95
2018-11-29T05:16:34.262Z,100930.70
2018-11-29T05:17:05.376Z,100905.73
2018-11-29T05:17:36.485Z,100931.91
2018-11-29T05:18:07.601Z,100937.76
2018-11-29T05:18:38.713Z,100935.15
2018-11-29T05:19:09.839Z,100934.64
2018-11-29T05:19:40.958Z,100939.82
2018-11-29T05:20:12.136Z,100939.36
2018-11-29T05:20:43.285Z,100936.71
2018-11-29T05:21:14.398Z,100943.64
2018-11-29T05:21:45.509Z,100941.06
2018-11-29T05:22:16.624Z,100940.71
2018-11-29T05:22:47.743Z,100943.41
2018-11-29T05:23:18.851Z,100937.48
2018-11-29T05:23:49.960Z,100946.66
2018-11-29T05:24:21.081Z,100944.48
2018-11-29T05:24:52.201Z,100950.40
2018-11-29T05:25:23.310Z,100946.86
2018-11-29T05:25:54.482Z,100947.68
2018-11-29T05:26:27.878Z,100952.70
2018-11-29T05:26:59.029Z,100949.70
2018-11-29T05:27:30.534Z,100949.28
2018-11-29T05:28:01.665Z,100957.84
2018-11-29T05:28:32.876Z,100959.59
2018-11-29T05:29:04.004Z,100960.02
2018-11-29T05:29:35.109Z,100960.88
2018-11-29T05:30:06.224Z,100952.39
2018-11-29T05:30:37.333Z,100959.12
2018-11-29T05:31:08.484Z,100952.66
2018-11-29T05:31:39.600Z,100964.30
2018-11-29T05:32:10.943Z,100964.30
2018-11-29T05:32:42.065Z,100965.11
2018-11-29T05:33:13.216Z,100964.65
2018-11-29T05:33:44.387Z,100962.66
2018-11-29T05:34:15.497Z,100957.72
2018-11-29T05:34:46.604Z,100966.11
2018-11-29T05:35:17.734Z,100966.19
2018-11-29T05:35:48.892Z,100965.76
2018-11-29T05:36:19.997Z,100961.80
2018-11-29T05:36:51.126Z,100966.33
2018-11-29T05:37:22.236Z,100971.47
2018-11-29T05:37:53.341Z,100964.90
2018-11-29T05:38:24.475Z,100972.44
2018-11-29T05:38:55.641Z,100970.58
2018-11-29T05:39:26.784Z,100970.80
2018-11-29T05:39:57.900Z,100972.48
2018-11-29T05:40:29.006Z,100973.27
2018-11-29T05:41:00.171Z,100975.41
2018-11-29T05:41:31.293Z,100973.16
2018-11-29T05:42:02.423Z,100971.26
2018-11-29T05:42:33.579Z,100976.79
2018-11-29T05:43:04.708Z,100977.15
2018-11-29T05:43:35.834Z,100973.68
2018-11-29T05:44:06.966Z,100976.56
2018-11-29T05:44:38.080Z,100977.70
2018-11-29T05:45:09.198Z,100975.95
2018-11-29T05:45:40.329Z,100972.61
2018-11-29T05:46:11.493Z,100975.95
2018-11-29T05:46:43.462Z,100976.38
2018-11-29T05:47:14.593Z,100975.14
2018-11-29T05:47:45.775Z,100980.24
2018-11-29T05:48:17.226Z,100982.73
2018-11-29T05:48:48.433Z,100982.63
2018-11-29T05:49:25.876Z,100982.66
2018-11-29T05:49:57.686Z,100988.16
2018-11-29T05:50:28.849Z,100984.56
2018-11-29T05:52:15.325Z,100974.23
2018-11-29T05:53:23.560Z,100975.21
2018-11-29T05:53:54.847Z,100976.68
2018-11-29T05:54:28.320Z,100982.91
2018-11-29T05:54:59.882Z,100988.38
2018-11-29T05:55:32.026Z,100982.55
2018-11-29T05:56:03.904Z,100981.55
2018-11-29T05:57:15.128Z,100988.11
2018-11-29T05:59:39.155Z,100991.47
2018-11-29T06:00:10.501Z,100991.39